Time;durP1;ratioP1;P1;durP2;ratioP2;P2;SDS_P1;SDS_P2;PMS_P1;PMS_P2;Temp;Humidity;BMP_temperature;BMP_pressure;BME280_temperature;BME280_humidity;BME280_pressure;Samples;Min_cycle;Max_cycle;Signal;HPM_P1;HPM_P2
2022/07/22 00:02:25;;;;;;;9.43;5.20;;;;;;;;;;4974940;28;20563;-70
2022/07/22 00:04:51;;;;;;;9.13;3.92;;;;;;;;;;4975138;28;20114;-71
2022/07/22 00:07:17;;;;;;;6.55;4.40;;;;;;;;;;4975029;28;20089;-69
2022/07/22 00:09:43;;;;;;;7.53;4.82;;;;;;;;;;4974997;28;20026;-69
2022/07/22 00:12:09;;;;;;;11.13;5.50;;;;;;;;;;4975470;28;20037;-70
2022/07/22 00:14:35;;;;;;;9.35;4.80;;;;;;;;;;4975086;28;20031;-72
2022/07/22 00:17:01;;;;;;;9.50;5.53;;;;;;;;;;4974879;28;20023;-70
2022/07/22 00:19:28;;;;;;;6.35;4.18;;;;;;;;;;4974872;28;20397;-71
2022/07/22 00:21:54;;;;;;;9.10;4.85;;;;;;;;;;4975105;28;20023;-72
2022/07/22 00:24:20;;;;;;;8.23;5.05;;;;;;;;;;4975100;28;20539;-69
2022/07/22 00:26:46;;;;;;;10.27;5.18;;;;;;;;;;4974728;28;20031;-69
2022/07/22 00:29:12;;;;;;;10.23;5.13;;;;;;;;;;4974735;28;20042;-72
2022/07/22 00:31:38;;;;;;;9.90;5.22;;;;;;;;;;4974649;28;20027;-71
2022/07/22 00:34:04;;;;;;;8.52;5.57;;;;;;;;;;4974343;28;20031;-69
2022/07/22 00:36:30;;;;;;;13.20;5.82;;;;;;;;;;4974629;28;20041;-71
2022/07/22 00:38:57;;;;;;;7.07;5.60;;;;;;;;;;4974585;28;20154;-71
2022/07/22 00:41:23;;;;;;;10.45;6.07;;;;;;;;;;4975134;28;20023;-70
2022/07/22 00:43:53;;;;;;;9.30;5.40;;;;;;;;;;4974540;28;20097;-70
2022/07/22 00:46:19;;;;;;;9.48;6.18;;;;;;;;;;4975258;28;20029;-70
2022/07/22 00:48:45;;;;;;;11.88;5.85;;;;;;;;;;4974435;28;20022;-71
2022/07/22 00:51:12;;;;;;;9.60;5.55;;;;;;;;;;4957054;28;20027;-69
2022/07/22 00:53:38;;;;;;;11.15;6.40;;;;;;;;;;4974643;28;20031;-70
2022/07/22 00:56:04;;;;;;;10.50;5.50;;;;;;;;;;4974331;28;20051;-71
2022/07/22 00:58:30;;;;;;;8.95;6.05;;;;;;;;;;4974892;28;20521;-70
2022/07/22 01:00:56;;;;;;;14.45;6.40;;;;;;;;;;4974373;28;20600;-72
2022/07/22 01:03:22;;;;;;;10.15;5.30;;;;;;;;;;4974129;28;20057;-70
2022/07/22 01:05:48;;;;;;;10.60;5.50;;;;;;;;;;4974310;28;20026;-71
2022/07/22 01:08:14;;;;;;;10.43;5.88;;;;;;;;;;4974515;28;20409;-69
2022/07/22 01:10:40;;;;;;;10.52;6.03;;;;;;;;;;4974227;28;20030;-69
2022/07/22 01:13:06;;;;;;;9.40;5.78;;;;;;;;;;4974228;28;20038;-70
2022/07/22 01:15:33;;;;;;;10.00;5.85;;;;;;;;;;4974714;28;20113;-72
2022/07/22 01:18:00;;;;;;;11.18;6.32;;;;;;;;;;4974167;28;20027;-71
2022/07/22 01:20:26;;;;;;;12.82;5.97;;;;;;;;;;4974189;28;20033;-70
2022/07/22 01:22:52;;;;;;;8.45;5.60;;;;;;;;;;4974434;28;20491;-70
2022/07/22 01:25:18;;;;;;;8.60;6.15;;;;;;;;;;4974398;28;20034;-71
2022/07/22 01:27:44;;;;;;;13.23;5.45;;;;;;;;;;4974424;28;20444;-71
2022/07/22 01:30:11;;;;;;;9.38;6.50;;;;;;;;;;4974056;28;20109;-71
2022/07/22 01:32:37;;;;;;;8.93;5.53;;;;;;;;;;4974314;28;20119;-71
2022/07/22 01:35:04;;;;;;;9.20;5.90;;;;;;;;;;4973969;28;20121;-71
2022/07/22 01:37:30;;;;;;;8.50;5.25;;;;;;;;;;4974046;28;20389;-69
2022/07/22 01:39:56;;;;;;;9.43;5.20;;;;;;;;;;4974001;28;20397;-71
2022/07/22 01:42:22;;;;;;;7.53;5.53;;;;;;;;;;4974004;28;20118;-69
2022/07/22 01:44:48;;;;;;;9.10;5.15;;;;;;;;;;4973958;28;20481;-71
2022/07/22 01:47:14;;;;;;;8.80;5.30;;;;;;;;;;4978339;28;20034;-71
2022/07/22 01:49:40;;;;;;;10.05;5.60;;;;;;;;;;4977608;28;20393;-70
2022/07/22 01:52:06;;;;;;;9.88;6.07;;;;;;;;;;4960139;28;20031;-71
2022/07/22 01:54:32;;;;;;;13.38;6.28;;;;;;;;;;4977414;28;20026;-71
2022/07/22 01:56:58;;;;;;;9.35;5.57;;;;;;;;;;4977469;28;20031;-71
2022/07/22 01:59:24;;;;;;;14.48;6.43;;;;;;;;;;4977339;28;20523;-71
2022/07/22 02:01:50;;;;;;;11.48;6.30;;;;;;;;;;4977320;28;20027;-71
2022/07/22 02:04:16;;;;;;;9.25;5.70;;;;;;;;;;4977131;28;20155;-71
2022/07/22 02:06:43;;;;;;;10.65;6.00;;;;;;;;;;4977153;28;20102;-69
2022/07/22 02:09:10;;;;;;;12.18;6.13;;;;;;;;;;4977245;28;20049;-72
2022/07/22 02:11:36;;;;;;;9.15;5.95;;;;;;;;;;4977443;28;20050;-71
2022/07/22 02:14:02;;;;;;;10.98;7.00;;;;;;;;;;4977084;28;20105;-71
2022/07/22 02:16:28;;;;;;;11.07;6.20;;;;;;;;;;4977121;28;20107;-71
2022/07/22 02:18:54;;;;;;;10.35;6.20;;;;;;;;;;4977035;28;20090;-71
2022/07/22 02:21:21;;;;;;;10.90;6.53;;;;;;;;;;4977267;28;20496;-72
2022/07/22 02:23:47;;;;;;;13.57;7.55;;;;;;;;;;4977212;28;20061;-71
2022/07/22 02:26:13;;;;;;;12.18;7.30;;;;;;;;;;4976905;28;20030;-71
2022/07/22 02:28:39;;;;;;;10.27;6.07;;;;;;;;;;4977130;28;20023;-70
2022/07/22 02:31:05;;;;;;;14.50;7.13;;;;;;;;;;4976849;28;20026;-71
2022/07/22 02:33:31;;;;;;;12.10;7.60;;;;;;;;;;4976835;28;20486;-70
2022/07/22 02:35:57;;;;;;;12.30;7.00;;;;;;;;;;4976677;28;20158;-72
2022/07/22 02:38:23;;;;;;;11.52;7.55;;;;;;;;;;4976952;28;20158;-70
2022/07/22 02:40:49;;;;;;;12.27;8.40;;;;;;;;;;4959247;28;20113;-72
2022/07/22 02:43:15;;;;;;;14.27;8.15;;;;;;;;;;4959308;28;20037;-69
2022/07/22 02:45:41;;;;;;;13.85;8.18;;;;;;;;;;4977082;28;20022;-71
2022/07/22 02:48:07;;;;;;;13.60;7.45;;;;;;;;;;4976767;28;20069;-71
2022/07/22 02:50:33;;;;;;;11.85;7.22;;;;;;;;;;4976746;28;20023;-71
2022/07/22 02:52:59;;;;;;;12.75;7.10;;;;;;;;;;4976421;28;20481;-70
2022/07/22 02:55:25;;;;;;;11.50;7.43;;;;;;;;;;4976325;28;20027;-70
2022/07/22 02:57:51;;;;;;;13.15;8.23;;;;;;;;;;4975930;28;20030;-70
2022/07/22 03:00:17;;;;;;;13.23;8.55;;;;;;;;;;4976253;28;20023;-71
2022/07/22 03:02:44;;;;;;;14.40;7.97;;;;;;;;;;4958654;28;20417;-70
2022/07/22 03:05:11;;;;;;;12.38;7.72;;;;;;;;;;4976266;28;20034;-71
2022/07/22 03:07:37;;;;;;;10.65;7.90;;;;;;;;;;4976225;28;20031;-70
2022/07/22 03:10:03;;;;;;;12.00;7.32;;;;;;;;;;4976388;28;20470;-70
2022/07/22 03:12:29;;;;;;;10.00;7.22;;;;;;;;;;4976552;28;20019;-69
2022/07/22 03:14:55;;;;;;;11.50;7.32;;;;;;;;;;4976258;28;20034;-72
2022/07/22 03:17:21;;;;;;;12.30;8.15;;;;;;;;;;4976056;28;20457;-71
2022/07/22 03:19:47;;;;;;;9.93;7.05;;;;;;;;;;4975940;28;20034;-69
2022/07/22 03:22:13;;;;;;;13.85;7.45;;;;;;;;;;4975915;28;20023;-70
2022/07/22 03:24:39;;;;;;;12.48;7.35;;;;;;;;;;4975866;28;20378;-71
2022/07/22 03:27:05;;;;;;;14.10;7.90;;;;;;;;;;4976116;28;20030;-71
2022/07/22 03:29:31;;;;;;;11.25;7.60;;;;;;;;;;4975766;28;20030;-71
2022/07/22 03:31:57;;;;;;;12.15;8.35;;;;;;;;;;4975736;28;20118;-70
2022/07/22 03:34:24;;;;;;;16.27;8.52;;;;;;;;;;4975622;28;20029;-70
2022/07/22 03:36:50;;;;;;;13.68;8.02;;;;;;;;;;4975901;28;20027;-71
2022/07/22 03:39:16;;;;;;;14.00;8.32;;;;;;;;;;4975580;28;20527;-72
2022/07/22 03:41:42;;;;;;;12.15;7.40;;;;;;;;;;4958218;28;20026;-70
2022/07/22 03:44:08;;;;;;;11.65;7.97;;;;;;;;;;4958180;28;20026;-70
2022/07/22 03:46:34;;;;;;;12.15;7.90;;;;;;;;;;4975966;28;20027;-70
2022/07/22 03:49:00;;;;;;;11.52;7.70;;;;;;;;;;4975359;28;20384;-70
2022/07/22 03:51:26;;;;;;;11.50;7.30;;;;;;;;;;4975334;28;20035;-71
2022/07/22 03:53:52;;;;;;;13.93;8.88;;;;;;;;;;4975238;28;20023;-71
2022/07/22 03:56:18;;;;;;;13.13;9.00;;;;;;;;;;4975251;28;20374;-70
2022/07/22 03:58:44;;;;;;;14.82;9.35;;;;;;;;;;4975254;28;20027;-70
2022/07/22 04:01:10;;;;;;;13.65;8.07;;;;;;;;;;4975082;28;20027;-69
2022/07/22 04:03:36;;;;;;;16.58;9.82;;;;;;;;;;4974923;28;20513;-69
2022/07/22 04:06:02;;;;;;;14.38;8.75;;;;;;;;;;4975074;28;20034;-71
2022/07/22 04:08:28;;;;;;;11.05;7.85;;;;;;;;;;4974251;28;20027;-70
2022/07/22 04:10:54;;;;;;;13.43;8.32;;;;;;;;;;4975021;28;20089;-69
2022/07/22 04:13:20;;;;;;;11.98;8.20;;;;;;;;;;4974999;28;20078;-69
2022/07/22 04:15:46;;;;;;;15.68;9.05;;;;;;;;;;4974883;28;20512;-69
2022/07/22 04:18:12;;;;;;;14.63;9.20;;;;;;;;;;4975188;28;20025;-70
2022/07/22 04:20:38;;;;;;;14.38;8.63;;;;;;;;;;4974854;28;20015;-71
2022/07/22 04:23:04;;;;;;;15.27;9.20;;;;;;;;;;4974822;28;20089;-70
2022/07/22 04:25:30;;;;;;;13.20;8.85;;;;;;;;;;4957458;28;20031;-71
2022/07/22 04:27:56;;;;;;;14.60;8.30;;;;;;;;;;4974965;28;20053;-71
2022/07/22 04:30:22;;;;;;;15.85;10.18;;;;;;;;;;4974699;28;20027;-70
2022/07/22 04:32:48;;;;;;;16.05;10.60;;;;;;;;;;4974654;28;20035;-72
2022/07/22 04:35:14;;;;;;;16.30;10.52;;;;;;;;;;4974546;28;20540;-70
2022/07/22 04:37:40;;;;;;;18.90;11.40;;;;;;;;;;4974576;28;20023;-71
2022/07/22 04:40:07;;;;;;;18.50;10.68;;;;;;;;;;4974532;28;20031;-70
2022/07/22 04:42:33;;;;;;;19.05;12.02;;;;;;;;;;4974810;28;20023;-71
2022/07/22 04:44:59;;;;;;;21.38;12.38;;;;;;;;;;4974519;28;20101;-70
2022/07/22 04:47:25;;;;;;;21.85;11.98;;;;;;;;;;4974971;28;20529;-71
2022/07/22 04:49:51;;;;;;;21.25;12.80;;;;;;;;;;4974992;28;20109;-72
2022/07/22 04:52:17;;;;;;;21.88;11.43;;;;;;;;;;4974419;28;20106;-70
2022/07/22 04:54:43;;;;;;;23.55;13.45;;;;;;;;;;4974365;28;20023;-71
2022/07/22 04:57:09;;;;;;;27.38;14.43;;;;;;;;;;4974415;28;20030;-70
2022/07/22 04:59:35;;;;;;;23.42;12.80;;;;;;;;;;4974303;28;20031;-69
2022/07/22 05:02:01;;;;;;;23.50;14.10;;;;;;;;;;4974372;28;20082;-70
2022/07/22 05:04:27;;;;;;;24.88;13.13;;;;;;;;;;4973928;28;20429;-70
2022/07/22 05:06:53;;;;;;;26.05;14.10;;;;;;;;;;4974566;28;20031;-71
2022/07/22 05:09:19;;;;;;;23.23;13.05;;;;;;;;;;4974360;28;20062;-71
2022/07/22 05:11:45;;;;;;;24.50;13.70;;;;;;;;;;4974614;28;20081;-71
2022/07/22 05:14:11;;;;;;;22.40;13.13;;;;;;;;;;4974163;28;20058;-73
2022/07/22 05:16:37;;;;;;;23.00;11.43;;;;;;;;;;4974763;28;20062;-71
2022/07/22 05:19:04;;;;;;;20.20;12.02;;;;;;;;;;4975025;28;20041;-72
2022/07/22 05:21:30;;;;;;;24.08;14.05;;;;;;;;;;4960719;28;20034;-70
2022/07/22 05:23:56;;;;;;;24.38;13.57;;;;;;;;;;4978092;28;20118;-71
2022/07/22 05:26:22;;;;;;;20.23;12.68;;;;;;;;;;4978050;28;20169;-71
2022/07/22 05:28:48;;;;;;;22.02;14.05;;;;;;;;;;4978010;28;20393;-70
2022/07/22 05:31:14;;;;;;;18.20;12.15;;;;;;;;;;4977959;28;20027;-70
2022/07/22 05:33:40;;;;;;;21.42;11.98;;;;;;;;;;4960554;28;20030;-71
2022/07/22 05:36:09;;;;;;;21.70;12.35;;;;;;;;;;4978060;28;20444;-69
2022/07/22 05:38:35;;;;;;;24.13;13.20;;;;;;;;;;4978120;28;20030;-70
2022/07/22 05:41:01;;;;;;;19.02;11.25;;;;;;;;;;4977788;28;20022;-72
2022/07/22 05:43:27;;;;;;;21.00;13.25;;;;;;;;;;4977742;28;20027;-71
2022/07/22 05:45:57;;;;;;;21.85;13.07;;;;;;;;;;4977763;28;20031;-68
2022/07/22 05:48:23;;;;;;;24.15;11.50;;;;;;;;;;4977915;28;20030;-71
2022/07/22 05:50:49;;;;;;;26.92;11.48;;;;;;;;;;4977867;28;20045;-73
2022/07/22 05:53:15;;;;;;;18.83;11.52;;;;;;;;;;4977785;28;20110;-70
2022/07/22 05:55:41;;;;;;;19.77;11.48;;;;;;;;;;4977439;28;20458;-71
2022/07/22 05:58:07;;;;;;;15.15;10.95;;;;;;;;;;4977449;28;20027;-70
2022/07/22 06:00:33;;;;;;;23.05;12.10;;;;;;;;;;4977272;28;20026;-71
2022/07/22 06:02:59;;;;;;;21.77;11.95;;;;;;;;;;4977111;28;20046;-70
2022/07/22 06:05:25;;;;;;;19.65;11.90;;;;;;;;;;4977586;28;20041;-70
2022/07/22 06:07:51;;;;;;;22.83;13.73;;;;;;;;;;4977809;28;20026;-69
2022/07/22 06:10:17;;;;;;;19.70;12.18;;;;;;;;;;4977506;28;20035;-71
2022/07/22 06:12:43;;;;;;;17.67;12.25;;;;;;;;;;4977432;28;20034;-69
2022/07/22 06:15:09;;;;;;;21.70;14.15;;;;;;;;;;4977342;28;20444;-70
2022/07/22 06:17:35;;;;;;;18.27;12.32;;;;;;;;;;4977099;28;20041;-70
2022/07/22 06:20:01;;;;;;;23.10;13.00;;;;;;;;;;4977350;28;20481;-70
2022/07/22 06:22:27;;;;;;;20.95;13.07;;;;;;;;;;4977305;28;20043;-69
2022/07/22 06:24:53;;;;;;;17.40;11.68;;;;;;;;;;4976982;28;20081;-70
2022/07/22 06:27:19;;;;;;;20.55;11.98;;;;;;;;;;4976905;28;20482;-71
2022/07/22 06:29:45;;;;;;;23.00;12.50;;;;;;;;;;4977131;28;20523;-71
2022/07/22 06:32:11;;;;;;;23.15;11.88;;;;;;;;;;4975938;28;20027;-71
2022/07/22 06:34:37;;;;;;;21.17;11.05;;;;;;;;;;4977201;28;20027;-71
2022/07/22 06:37:03;;;;;;;17.30;11.00;;;;;;;;;;4976968;28;20030;-70
2022/07/22 06:39:29;;;;;;;18.85;12.30;;;;;;;;;;4976651;28;20062;-70
2022/07/22 06:41:55;;;;;;;17.63;12.43;;;;;;;;;;4976643;28;20031;-69
2022/07/22 06:44:21;;;;;;;22.35;12.77;;;;;;;;;;4976857;28;20038;-72
2022/07/22 06:46:47;;;;;;;18.02;11.02;;;;;;;;;;4977063;28;20482;-72
2022/07/22 06:49:13;;;;;;;24.75;11.98;;;;;;;;;;4976539;28;20034;-70
2022/07/22 06:51:39;;;;;;;21.13;12.20;;;;;;;;;;4976436;28;20029;-69
2022/07/22 06:54:05;;;;;;;20.55;11.90;;;;;;;;;;4976639;28;20035;-67
2022/07/22 06:56:31;;;;;;;25.20;13.55;;;;;;;;;;4976721;28;20022;-67
2022/07/22 06:58:57;;;;;;;24.05;12.80;;;;;;;;;;4976695;28;20037;-67
2022/07/22 07:01:23;;;;;;;20.48;12.70;;;;;;;;;;4976286;28;20459;-67
2022/07/22 07:03:49;;;;;;;22.92;12.98;;;;;;;;;;4976114;28;20057;-68
2022/07/22 07:06:16;;;;;;;23.50;12.93;;;;;;;;;;4976524;28;20060;-68
2022/07/22 07:08:42;;;;;;;22.42;13.43;;;;;;;;;;4976512;28;20477;-67
2022/07/22 07:11:08;;;;;;;23.70;13.18;;;;;;;;;;4976163;28;20026;-67
2022/07/22 07:13:34;;;;;;;24.67;14.52;;;;;;;;;;4976178;28;20075;-67
2022/07/22 07:16:00;;;;;;;21.48;12.68;;;;;;;;;;4976257;28;20051;-66
2022/07/22 07:18:26;;;;;;;22.13;13.43;;;;;;;;;;4976570;28;20022;-67
2022/07/22 07:20:52;;;;;;;20.80;12.43;;;;;;;;;;4975967;28;20025;-67
2022/07/22 07:23:18;;;;;;;22.33;13.38;;;;;;;;;;4975932;28;20031;-67
2022/07/22 07:25:44;;;;;;;23.15;11.90;;;;;;;;;;4975888;28;20034;-66
2022/07/22 07:28:10;;;;;;;25.40;12.93;;;;;;;;;;4975818;28;20027;-67
2022/07/22 07:30:36;;;;;;;25.20;13.38;;;;;;;;;;4975836;28;20027;-67
2022/07/22 07:33:02;;;;;;;21.58;12.95;;;;;;;;;;4975757;28;20486;-66
2022/07/22 07:35:29;;;;;;;18.75;11.82;;;;;;;;;;4975619;28;20023;-66
2022/07/22 07:37:55;;;;;;;20.27;12.48;;;;;;;;;;4975619;28;20042;-67
2022/07/22 07:40:21;;;;;;;20.45;11.43;;;;;;;;;;4975565;28;20019;-68
2022/07/22 07:42:47;;;;;;;22.05;13.38;;;;;;;;;;4976001;28;20465;-68
2022/07/22 07:45:13;;;;;;;24.40;13.18;;;;;;;;;;4975546;28;20031;-73
2022/07/22 07:47:39;;;;;;;19.67;13.23;;;;;;;;;;4975960;28;20034;-68
2022/07/22 07:50:07;;;;;;;22.13;12.73;;;;;;;;;;4975693;28;20035;-68
2022/07/22 07:52:38;;;;;;;21.83;12.10;;;;;;;;;;4975652;28;20042;-68
2022/07/22 07:55:23;;;;;;;20.65;12.57;;;;;;;;;;4975545;28;20039;-68
2022/07/22 07:57:49;;;;;;;19.55;12.43;;;;;;;;;;4975300;28;20023;-69
2022/07/22 08:00:16;;;;;;;25.55;13.18;;;;;;;;;;4975169;28;20027;-69
2022/07/22 08:02:42;;;;;;;18.70;11.27;;;;;;;;;;4974987;28;20140;-68
2022/07/22 08:05:09;;;;;;;18.80;12.05;;;;;;;;;;4975434;28;20493;-69
2022/07/22 08:07:35;;;;;;;22.02;12.30;;;;;;;;;;4975623;28;20129;-69
2022/07/22 08:10:01;;;;;;;21.38;13.05;;;;;;;;;;4975576;28;20029;-69
2022/07/22 08:12:28;;;;;;;21.33;13.02;;;;;;;;;;4975268;28;20535;-69
2022/07/22 08:14:54;;;;;;;23.02;13.23;;;;;;;;;;4975171;28;20037;-69
2022/07/22 08:17:20;;;;;;;18.98;12.00;;;;;;;;;;4975203;28;20027;-69
2022/07/22 08:19:46;;;;;;;19.85;12.45;;;;;;;;;;4974909;28;20027;-69
2022/07/22 08:22:12;;;;;;;23.45;13.98;;;;;;;;;;4974873;28;20485;-70
2022/07/22 08:24:38;;;;;;;20.45;11.75;;;;;;;;;;4974817;28;20023;-69
2022/07/22 08:27:04;;;;;;;19.98;12.82;;;;;;;;;;4975048;28;20031;-69
2022/07/22 08:29:30;;;;;;;18.58;12.27;;;;;;;;;;4957267;28;20033;-69
2022/07/22 08:31:56;;;;;;;19.63;12.15;;;;;;;;;;4974473;28;20038;-67
2022/07/22 08:34:22;;;;;;;20.67;10.18;;;;;;;;;;4974699;28;20027;-71
2022/07/22 08:36:48;;;;;;;22.42;11.75;;;;;;;;;;4974930;28;20038;-71
2022/07/22 08:39:14;;;;;;;17.42;11.07;;;;;;;;;;4957286;28;20401;-68
2022/07/22 08:41:40;;;;;;;16.80;10.43;;;;;;;;;;4974625;28;20055;-69
2022/07/22 08:44:08;;;;;;;19.00;11.27;;;;;;;;;;4974808;28;20019;-68
2022/07/22 08:46:34;;;;;;;15.48;10.60;;;;;;;;;;4975023;28;20031;-69
2022/07/22 08:49:01;;;;;;;17.35;11.07;;;;;;;;;;4974439;28;20023;-73
2022/07/22 08:51:27;;;;;;;19.23;10.57;;;;;;;;;;4974704;28;20026;-69
2022/07/22 08:53:53;;;;;;;15.70;9.48;;;;;;;;;;4973992;28;20026;-70
2022/07/22 08:56:19;;;;;;;15.32;9.20;;;;;;;;;;4974341;28;20041;-70
2022/07/22 08:58:45;;;;;;;15.48;9.75;;;;;;;;;;4974443;28;20060;-69
2022/07/22 09:01:12;;;;;;;16.25;8.82;;;;;;;;;;4974304;28;20596;-69
2022/07/22 09:03:46;;;;;;;14.25;9.73;;;;;;;;;;4974178;28;20126;-70
2022/07/22 09:06:12;;;;;;;15.43;9.30;;;;;;;;;;4974335;28;20062;-71
2022/07/22 09:08:55;;;;;;;16.58;9.65;;;;;;;;;;4974214;28;20505;-74
2022/07/22 09:11:23;;;;;;;18.48;10.13;;;;;;;;;;4974587;28;20038;-77
2022/07/22 09:13:49;;;;;;;14.95;9.52;;;;;;;;;;4974209;28;20397;-68
2022/07/22 09:16:15;;;;;;;13.85;9.27;;;;;;;;;;4974053;28;20030;-70
2022/07/22 09:18:48;;;;;;;15.73;9.98;;;;;;;;;;4974222;28;20034;-69
2022/07/22 09:21:14;;;;;;;15.15;9.18;;;;;;;;;;4973560;28;20030;-69
2022/07/22 09:23:42;;;;;;;16.15;10.77;;;;;;;;;;4973980;28;20401;-70
2022/07/22 09:26:08;;;;;;;20.33;10.23;;;;;;;;;;4974035;28;20509;-70
2022/07/22 09:28:34;;;;;;;14.73;9.27;;;;;;;;;;4974508;28;20489;-69
2022/07/22 09:31:00;;;;;;;14.27;9.40;;;;;;;;;;4974629;28;20041;-70
2022/07/22 09:33:26;;;;;;;17.15;9.02;;;;;;;;;;4974590;28;20369;-70
2022/07/22 09:36:02;;;;;;;11.70;8.02;;;;;;;;;;4973963;28;20034;-70
2022/07/22 09:38:29;;;;;;;15.48;8.63;;;;;;;;;;4974346;28;20025;-70
2022/07/22 09:40:55;;;;;;;15.95;9.50;;;;;;;;;;4974631;28;20083;-70
2022/07/22 09:43:22;;;;;;;12.90;7.85;;;;;;;;;;4974275;28;20026;-70
2022/07/22 09:45:48;;;;;;;13.23;8.57;;;;;;;;;;4973932;28;20026;-70
2022/07/22 09:48:14;;;;;;;16.00;9.30;;;;;;;;;;4957103;28;20030;-71
2022/07/22 09:50:40;;;;;;;14.98;8.75;;;;;;;;;;4973875;28;20026;-70
2022/07/22 09:53:06;;;;;;;11.80;7.75;;;;;;;;;;4973899;28;20027;-70
2022/07/22 09:55:33;;;;;;;16.17;7.78;;;;;;;;;;4974336;28;20110;-70
2022/07/22 09:58:00;;;;;;;15.75;7.88;;;;;;;;;;4974404;28;20527;-70
2022/07/22 10:00:27;;;;;;;12.65;7.75;;;;;;;;;;4973706;28;20080;-70
2022/07/22 10:02:53;;;;;;;17.52;9.70;;;;;;;;;;4974072;28;20046;-71
2022/07/22 10:05:22;;;;;;;14.48;8.60;;;;;;;;;;4974075;28;20035;-70
2022/07/22 10:07:48;;;;;;;10.55;7.28;;;;;;;;;;4976899;28;20421;-72
2022/07/22 10:10:16;;;;;;;12.77;7.85;;;;;;;;;;4977242;28;20035;-73
2022/07/22 10:12:42;;;;;;;16.85;8.50;;;;;;;;;;4977832;28;20468;-72
2022/07/22 10:15:09;;;;;;;13.27;8.48;;;;;;;;;;4977073;28;20525;-71
2022/07/22 10:17:39;;;;;;;14.68;8.60;;;;;;;;;;4977640;28;20373;-70
2022/07/22 10:20:06;;;;;;;13.05;7.15;;;;;;;;;;4977120;28;20034;-70
2022/07/22 10:22:46;;;;;;;13.40;7.05;;;;;;;;;;4977040;28;20023;-75
2022/07/22 10:25:12;;;;;;;;;;;;;;;;;;4960816;28;20093;-73
2022/07/22 10:27:55;;;;;;;12.48;7.40;;;;;;;;;;4976953;28;19906;-72
2022/07/22 10:30:22;;;;;;;11.43;7.95;;;;;;;;;;4976930;28;20481;-73
2022/07/22 10:33:07;;;;;;;12.68;7.45;;;;;;;;;;4959552;28;20026;-72
2022/07/22 10:35:34;;;;;;;13.73;7.50;;;;;;;;;;4976779;28;20036;-73
2022/07/22 10:38:02;;;;;;;16.38;7.50;;;;;;;;;;4976791;28;20026;-74
2022/07/22 10:40:32;;;;;;;12.55;7.45;;;;;;;;;;4976724;28;20066;-73
2022/07/22 10:42:58;;;;;;;;;;;;;;;;;;4977708;28;20033;-72
2022/07/22 10:45:25;;;;;;;10.02;6.35;;;;;;;;;;4959310;28;19906;-72
2022/07/22 10:48:01;;;;;;;15.10;6.90;;;;;;;;;;4977647;28;20023;-73
2022/07/22 10:50:39;;;;;;;11.20;6.30;;;;;;;;;;4976587;28;20058;-73
2022/07/22 10:53:06;;;;;;;12.60;6.10;;;;;;;;;;4976498;28;20102;-72
2022/07/22 10:55:32;;;;;;;10.93;6.22;;;;;;;;;;4976420;28;20026;-71
2022/07/22 10:57:59;;;;;;;11.90;7.13;;;;;;;;;;4976971;28;20023;-72
2022/07/22 11:00:25;;;;;;;10.65;6.43;;;;;;;;;;4976592;28;20536;-71
2022/07/22 11:02:51;;;;;;;10.23;6.72;;;;;;;;;;4976151;28;20090;-72
2022/07/22 11:05:27;;;;;;;9.75;6.85;;;;;;;;;;4958681;28;20045;-73
2022/07/22 11:07:53;;;;;;;11.07;6.45;;;;;;;;;;4976757;28;20034;-73
2022/07/22 11:10:20;;;;;;;8.77;6.40;;;;;;;;;;4976161;28;20034;-74
2022/07/22 11:12:47;;;;;;;12.20;6.30;;;;;;;;;;4976207;28;20030;-74
2022/07/22 11:15:13;;;;;;;11.52;6.85;;;;;;;;;;4976016;28;20030;-72
2022/07/22 11:17:39;;;;;;;10.93;6.80;;;;;;;;;;4975691;28;20027;-72
2022/07/22 11:20:07;;;;;;;11.68;6.90;;;;;;;;;;4975987;28;20466;-72
2022/07/22 11:22:34;;;;;;;12.70;6.32;;;;;;;;;;4976215;28;20046;-73
2022/07/22 11:25:04;;;;;;;10.20;6.05;;;;;;;;;;4975895;28;20146;-72
2022/07/22 11:27:30;;;;;;;11.07;5.97;;;;;;;;;;4958227;28;20089;-72
2022/07/22 11:29:57;;;;;;;11.40;5.65;;;;;;;;;;4975823;28;20035;-71
2022/07/22 11:32:24;;;;;;;9.43;5.93;;;;;;;;;;4975826;28;20034;-72
2022/07/22 11:34:50;;;;;;;10.43;6.35;;;;;;;;;;4976189;28;20034;-73
2022/07/22 11:37:22;;;;;;;9.80;5.55;;;;;;;;;;4975971;28;20101;-74
2022/07/22 11:39:48;;;;;;;11.88;6.45;;;;;;;;;;4958062;28;20031;-73
2022/07/22 11:42:14;;;;;;;12.32;6.18;;;;;;;;;;4975581;28;20026;-75
2022/07/22 11:44:41;;;;;;;11.63;6.00;;;;;;;;;;4975540;28;20489;-72
2022/07/22 11:47:07;;;;;;;8.40;5.15;;;;;;;;;;4976094;28;20394;-72
2022/07/22 11:49:35;;;;;;;9.90;5.43;;;;;;;;;;4975478;28;20058;-73
2022/07/22 11:52:01;;;;;;;10.35;6.15;;;;;;;;;;4975419;28;20082;-73
2022/07/22 11:54:27;;;;;;;8.43;4.70;;;;;;;;;;4975301;28;20042;-70
2022/07/22 11:56:53;;;;;;;9.43;5.38;;;;;;;;;;4975308;28;20023;-72
2022/07/22 11:59:20;;;;;;;11.05;5.03;;;;;;;;;;4975193;28;20030;-72
2022/07/22 12:01:48;;;;;;;8.98;4.88;;;;;;;;;;4975512;28;20093;-72
2022/07/22 12:04:16;;;;;;;9.43;4.75;;;;;;;;;;4974884;28;20082;-73
2022/07/22 12:06:43;;;;;;;7.07;5.10;;;;;;;;;;4975419;28;20027;-72
2022/07/22 12:09:10;;;;;;;10.10;4.75;;;;;;;;;;4975142;28;20038;-71
2022/07/22 12:11:39;;;;;;;7.72;4.50;;;;;;;;;;4975338;28;20158;-75
2022/07/22 12:14:10;;;;;;;6.80;4.13;;;;;;;;;;4975606;28;20430;-72
2022/07/22 12:16:36;;;;;;;9.85;4.38;;;;;;;;;;4975343;28;20041;-73
2022/07/22 12:19:05;;;;;;;7.35;4.13;;;;;;;;;;4974923;28;20556;-74
2022/07/22 12:21:33;;;;;;;6.45;3.80;;;;;;;;;;4975449;28;20034;-74
2022/07/22 12:24:06;;;;;;;7.72;4.95;;;;;;;;;;4975116;28;20378;-72
2022/07/22 12:26:41;;;;;;;6.70;4.45;;;;;;;;;;4974816;28;20536;-73
2022/07/22 12:29:13;;;;;;;6.47;4.22;;;;;;;;;;4974105;28;20065;-73
2022/07/22 12:31:43;;;;;;;7.25;3.72;;;;;;;;;;4974745;28;20109;-73
2022/07/22 12:34:09;;;;;;;6.23;3.90;;;;;;;;;;4974669;28;20050;-73
2022/07/22 12:36:36;;;;;;;7.72;3.78;;;;;;;;;;4974700;28;20287;-72
2022/07/22 12:39:19;;;;;;;5.63;3.83;;;;;;;;;;4974651;28;20031;-72
2022/07/22 12:41:46;;;;;;;6.88;3.85;;;;;;;;;;4974909;28;20027;-72
2022/07/22 12:44:19;;;;;;;8.95;4.40;;;;;;;;;;4975115;28;20032;-73
2022/07/22 12:46:46;;;;;;;7.63;4.03;;;;;;;;;;4957009;28;20022;-72
2022/07/22 12:49:12;;;;;;;9.88;4.32;;;;;;;;;;4957687;28;20034;-75
2022/07/22 12:51:38;;;;;;;8.45;3.67;;;;;;;;;;4974441;28;20034;-71
2022/07/22 12:54:04;;;;;;;8.05;3.75;;;;;;;;;;4974421;28;20081;-71
2022/07/22 12:56:31;;;;;;;6.32;3.42;;;;;;;;;;4974403;28;20066;-72
2022/07/22 12:58:57;;;;;;;7.20;4.20;;;;;;;;;;4957074;28;20481;-73
2022/07/22 13:01:23;;;;;;;7.50;3.67;;;;;;;;;;4974338;28;20019;-73
2022/07/22 13:03:49;;;;;;;7.75;3.95;;;;;;;;;;4974086;28;20181;-73
2022/07/22 13:06:15;;;;;;;7.55;4.10;;;;;;;;;;4974327;28;20370;-73
2022/07/22 13:08:41;;;;;;;9.63;4.20;;;;;;;;;;4974277;28;20031;-71
2022/07/22 13:11:07;;;;;;;7.65;4.35;;;;;;;;;;4974806;28;20114;-73
2022/07/22 13:13:33;;;;;;;6.97;4.00;;;;;;;;;;4974279;28;20074;-74
2022/07/22 13:15:59;;;;;;;8.48;4.25;;;;;;;;;;4974153;28;20475;-72
2022/07/22 13:18:25;;;;;;;9.27;4.20;;;;;;;;;;4974249;28;20090;-74
2022/07/22 13:20:51;;;;;;;8.13;3.90;;;;;;;;;;4974460;28;20077;-71
2022/07/22 13:23:17;;;;;;;7.43;4.00;;;;;;;;;;4974178;28;20474;-74
2022/07/22 13:25:44;;;;;;;10.05;4.20;;;;;;;;;;4974408;28;20074;-74
2022/07/22 13:28:10;;;;;;;8.55;4.15;;;;;;;;;;4974443;28;20548;-72
2022/07/22 13:30:36;;;;;;;9.98;3.80;;;;;;;;;;4974165;28;20031;-72
2022/07/22 13:33:03;;;;;;;6.18;3.50;;;;;;;;;;4974600;28;20027;-74
2022/07/22 13:35:29;;;;;;;10.35;3.92;;;;;;;;;;4974272;28;20094;-72
2022/07/22 13:37:55;;;;;;;9.15;3.85;;;;;;;;;;4974049;28;20106;-74
2022/07/22 13:40:21;;;;;;;8.50;4.00;;;;;;;;;;4975081;28;20023;-73
2022/07/22 13:42:47;;;;;;;6.47;3.72;;;;;;;;;;4977807;28;20077;-73
2022/07/22 13:45:14;;;;;;;10.05;3.72;;;;;;;;;;4978053;28;20081;-72
2022/07/22 13:47:41;;;;;;;8.35;4.25;;;;;;;;;;4978223;28;20038;-72
2022/07/22 13:50:07;;;;;;;7.70;3.50;;;;;;;;;;4977676;28;20046;-73
2022/07/22 13:52:34;;;;;;;7.07;3.65;;;;;;;;;;4977896;28;20027;-73
2022/07/22 13:55:00;;;;;;;11.60;3.95;;;;;;;;;;4977524;28;20026;-71
2022/07/22 13:57:26;;;;;;;7.63;3.72;;;;;;;;;;4977549;28;20027;-73
2022/07/22 13:59:52;;;;;;;16.10;4.43;;;;;;;;;;4960070;28;20560;-72
2022/07/22 14:02:18;;;;;;;6.93;3.10;;;;;;;;;;4977402;28;20069;-72
2022/07/22 14:04:44;;;;;;;6.18;3.65;;;;;;;;;;4977259;28;20047;-71
2022/07/22 14:07:10;;;;;;;8.13;3.38;;;;;;;;;;4977630;28;20378;-74
2022/07/22 14:09:36;;;;;;;9.07;3.75;;;;;;;;;;4977354;28;20042;-73
2022/07/22 14:12:02;;;;;;;7.40;3.40;;;;;;;;;;4977798;28;20038;-71
2022/07/22 14:14:28;;;;;;;7.55;3.42;;;;;;;;;;4977392;28;20034;-75
2022/07/22 14:16:54;;;;;;;8.35;3.65;;;;;;;;;;4977129;28;20102;-74
2022/07/22 14:19:21;;;;;;;8.93;3.45;;;;;;;;;;4977125;28;20058;-73
2022/07/22 14:21:47;;;;;;;7.55;3.53;;;;;;;;;;4977117;28;20030;-71
2022/07/22 14:24:13;;;;;;;9.10;3.97;;;;;;;;;;4977066;28;20034;-73
2022/07/22 14:26:42;;;;;;;8.63;3.70;;;;;;;;;;4977054;28;20132;-74
2022/07/22 14:29:08;;;;;;;7.75;3.40;;;;;;;;;;4977258;28;20480;-71